createdAt,value
2023-04-20T00:00:57.500Z,101455.88
2023-04-20T00:03:28.893Z,101467.13
2023-04-20T00:06:03.123Z,101458.59
2023-04-20T00:08:33.497Z,101455.56
2023-04-20T00:11:03.657Z,101459.44
2023-04-20T00:13:33.820Z,101458.63
2023-04-20T00:16:04.440Z,101463.34
2023-04-20T00:18:34.571Z,101467.44
2023-04-20T00:21:05.657Z,101461.38
2023-04-20T00:23:35.980Z,101458.91
2023-04-20T00:26:06.452Z,101457.50
2023-04-20T00:28:36.565Z,101456.13
2023-04-20T00:31:06.761Z,101453.41
2023-04-20T00:33:37.127Z,101451.75
2023-04-20T00:36:08.007Z,101460.31
2023-04-20T00:38:35.927Z,101465.56
2023-04-20T00:41:04.256Z,101461.44
2023-04-20T00:43:32.838Z,101452.06
2023-04-20T00:46:01.193Z,101444.31
2023-04-20T00:48:29.774Z,101444.88
2023-04-20T00:50:58.051Z,101444.59
2023-04-20T00:53:26.432Z,101444.34
2023-04-20T00:55:55.432Z,101448.47
2023-04-20T00:58:24.004Z,101445.41
2023-04-20T01:00:51.583Z,101449.84
2023-04-20T01:03:20.729Z,101444.63
2023-04-20T01:05:48.709Z,101447.91
2023-04-20T01:08:16.677Z,101441.56
2023-04-20T01:10:46.691Z,101438.53
2023-04-20T01:13:16.652Z,101440.16
2023-04-20T01:15:45.023Z,101442.34
2023-04-20T01:18:13.938Z,101445.06
2023-04-20T01:20:41.986Z,101442.81
2023-04-20T01:23:10.221Z,101443.06
2023-04-20T01:25:40.438Z,101437.22
2023-04-20T01:28:12.693Z,101441.06
2023-04-20T01:30:42.836Z,101442.72
2023-04-20T01:33:12.937Z,101444.06
2023-04-20T01:35:43.745Z,101445.25
2023-04-20T01:38:24.027Z,101437.25
2023-04-20T01:40:55.747Z,101439.44
2023-04-20T01:43:26.413Z,101430.63
2023-04-20T01:45:56.744Z,101425.13
2023-04-20T01:48:27.253Z,101427.88
2023-04-20T01:50:57.431Z,101427.31
2023-04-20T01:53:28.117Z,101439.69
2023-04-20T01:56:00.176Z,101434.81
2023-04-20T01:58:30.336Z,101445.84
2023-04-20T02:01:02.966Z,101446.94
2023-04-20T02:03:33.294Z,101445.03
2023-04-20T02:06:03.967Z,101439.84
2023-04-20T02:08:35.341Z,101434.34
2023-04-20T02:11:06.673Z,101446.97
2023-04-20T02:13:36.869Z,101445.03
2023-04-20T02:16:07.650Z,101442.88
2023-04-20T02:18:37.882Z,101450.31
2023-04-20T02:21:07.063Z,101447.28
2023-04-20T02:23:34.747Z,101441.47
2023-04-20T02:26:03.387Z,101446.47
2023-04-20T02:28:31.510Z,101441.50
2023-04-20T02:31:00.090Z,101443.16
2023-04-20T02:33:28.477Z,101450.09
2023-04-20T02:35:56.842Z,101443.47
2023-04-20T02:38:25.328Z,101438.78
2023-04-20T02:40:53.707Z,101437.72
2023-04-20T02:43:22.076Z,101442.88
2023-04-20T02:45:50.634Z,101443.66
2023-04-20T02:48:19.080Z,101438.72
2023-04-20T02:50:47.401Z,101440.59
2023-04-20T02:53:16.432Z,101448.34
2023-04-20T02:55:44.201Z,101442.56
2023-04-20T02:58:12.642Z,101438.69
2023-04-20T03:00:41.314Z,101446.69
2023-04-20T03:03:11.029Z,101443.72
2023-04-20T03:05:41.614Z,101450.38
2023-04-20T03:08:09.596Z,101449.22
2023-04-20T03:10:37.839Z,101444.50
2023-04-20T03:13:06.192Z,101442.03
2023-04-20T03:15:34.633Z,101445.88
2023-04-20T03:18:04.104Z,101441.47
2023-04-20T03:20:32.326Z,101443.94
2023-04-20T03:22:59.960Z,101439.78
2023-04-20T03:25:29.670Z,101435.94
2023-04-20T03:33:01.581Z,101459.06
2023-04-20T03:35:31.737Z,101464.91
2023-04-20T03:38:01.724Z,101458.84
2023-04-20T03:40:31.616Z,101463.25
2023-04-20T03:43:01.514Z,101461.84
2023-04-20T03:45:31.160Z,101467.91
2023-04-20T03:48:01.161Z,101468.16
2023-04-20T03:50:30.931Z,101466.84
2023-04-20T03:53:00.910Z,101459.34
2023-04-20T03:55:30.881Z,101459.13
2023-04-20T03:58:00.544Z,101453.03
2023-04-20T04:00:30.501Z,101457.47
2023-04-20T04:03:00.278Z,101461.00
2023-04-20T04:05:30.636Z,101461.28
2023-04-20T04:08:00.831Z,101462.94
2023-04-20T04:10:31.177Z,101460.22
2023-04-20T04:13:00.451Z,101463.03
2023-04-20T04:15:30.162Z,101471.56
2023-04-20T04:17:59.966Z,101481.44
2023-04-20T04:20:29.838Z,101480.28
2023-04-20T04:22:59.635Z,101478.91
2023-04-20T04:25:29.995Z,101479.56
2023-04-20T04:28:00.443Z,101480.59
2023-04-20T04:30:30.275Z,101475.66
2023-04-20T04:33:00.368Z,101484.13
2023-04-20T04:35:30.625Z,101480.03
2023-04-20T04:38:01.188Z,101477.22
2023-04-20T04:40:32.969Z,101484.97
2023-04-20T04:43:04.165Z,101493.44
2023-04-20T04:45:33.072Z,101502.00
2023-04-20T04:48:03.284Z,101498.22
2023-04-20T04:50:34.226Z,101493.78
2023-04-20T04:53:04.622Z,101501.22
2023-04-20T04:55:34.669Z,101505.06
2023-04-20T04:58:04.929Z,101488.75
2023-04-20T05:00:34.592Z,101493.13
2023-04-20T05:03:04.689Z,101490.66
2023-04-20T05:05:33.105Z,101490.66
2023-04-20T05:08:01.709Z,101493.19
2023-04-20T05:10:29.957Z,101497.66
2023-04-20T05:13:01.248Z,101500.94
2023-04-20T05:15:29.635Z,101499.91
2023-04-20T05:17:58.307Z,101508.16
2023-04-20T05:20:27.023Z,101508.97
2023-04-20T05:22:54.926Z,101517.22
2023-04-20T05:25:23.856Z,101519.16
2023-04-20T05:27:51.767Z,101511.19
2023-04-20T05:30:22.087Z,101513.69
2023-04-20T05:32:52.760Z,101519.19
2023-04-20T05:35:23.179Z,101522.50
2023-04-20T05:37:52.982Z,101523.88
2023-04-20T05:40:22.856Z,101520.03
2023-04-20T05:42:52.669Z,101511.53
2023-04-20T05:45:22.780Z,101514.88
2023-04-20T05:47:57.611Z,101513.47
2023-04-20T05:50:27.917Z,101519.56
2023-04-20T05:52:58.058Z,101519.81
2023-04-20T05:55:27.685Z,101516.84
2023-04-20T05:57:57.810Z,101524.78
2023-04-20T06:00:28.282Z,101526.44
2023-04-20T06:02:58.346Z,101527.53
2023-04-20T06:05:28.274Z,101536.94
2023-04-20T06:07:58.055Z,101539.13
2023-04-20T06:10:32.470Z,101526.69
2023-04-20T06:13:02.714Z,101527.00
2023-04-20T06:15:32.558Z,101542.66
2023-04-20T06:18:02.902Z,101532.78
2023-04-20T06:20:32.780Z,101549.88
2023-04-20T06:23:02.526Z,101536.66
2023-04-20T06:25:32.298Z,101529.78
2023-04-20T06:28:02.395Z,101522.91
2023-04-20T06:30:33.937Z,101535.03
2023-04-20T06:33:04.166Z,101543.28
2023-04-20T06:35:33.735Z,101547.16
2023-04-20T06:38:03.851Z,101546.31
2023-04-20T06:40:33.442Z,101548.56
2023-04-20T06:43:03.309Z,101545.78
2023-04-20T06:45:34.202Z,101543.56
2023-04-20T06:48:04.671Z,101549.09
2023-04-20T06:50:36.075Z,101567.56
2023-04-20T06:53:04.844Z,101556.00
2023-04-20T06:55:34.707Z,101562.06
2023-04-20T06:58:04.538Z,101572.28
2023-04-20T07:00:33.063Z,101559.28
2023-04-20T07:03:02.949Z,101558.19
2023-04-20T07:05:32.805Z,101563.53
2023-04-20T07:08:01.506Z,101566.38
2023-04-20T07:10:29.638Z,101561.44
2023-04-20T07:12:58.057Z,101559.31
2023-04-20T07:15:26.550Z,101568.72
2023-04-20T07:17:54.904Z,101563.78
2023-04-20T07:20:23.472Z,101566.09
2023-04-20T07:22:51.839Z,101571.72
2023-04-20T07:25:20.345Z,101571.91
2023-04-20T07:27:48.623Z,101580.59
2023-04-20T07:30:17.191Z,101579.53
2023-04-20T07:32:45.725Z,101578.66
2023-04-20T07:35:14.135Z,101570.09
2023-04-20T07:37:42.565Z,101569.91
2023-04-20T07:40:11.577Z,101573.41
2023-04-20T07:42:39.581Z,101575.06
2023-04-20T07:45:09.579Z,101576.97
2023-04-20T07:47:39.885Z,101583.44
2023-04-20T07:50:08.546Z,101578.28
2023-04-20T07:52:36.757Z,101579.59
2023-04-20T07:55:08.446Z,101584.63
2023-04-20T07:57:38.565Z,101597.56
2023-04-20T08:00:10.335Z,101582.22
2023-04-20T08:02:40.505Z,101578.91
2023-04-20T08:05:11.598Z,101582.44
2023-04-20T08:07:41.141Z,101582.31
2023-04-20T08:10:11.508Z,101588.06
2023-04-20T08:12:41.572Z,101584.22
2023-04-20T08:15:12.146Z,101585.34
2023-04-20T08:17:41.984Z,101582.56
2023-04-20T08:20:12.604Z,101585.97
2023-04-20T08:22:41.617Z,101587.00
2023-04-20T08:25:11.870Z,101588.31
2023-04-20T08:27:41.696Z,101595.84
2023-04-20T08:30:12.429Z,101593.22
2023-04-20T08:32:42.539Z,101593.97
2023-04-20T08:35:12.308Z,101592.97
2023-04-20T08:37:43.130Z,101598.69
2023-04-20T08:40:14.056Z,101601.06
2023-04-20T08:42:43.607Z,101594.50
2023-04-20T08:45:13.581Z,101588.69
2023-04-20T08:47:46.196Z,101596.50
2023-04-20T08:50:17.207Z,101602.34
2023-04-20T08:52:47.424Z,101598.03
2023-04-20T08:55:20.114Z,101592.09
2023-04-20T08:57:52.498Z,101588.88
2023-04-20T09:00:22.735Z,101595.88
2023-04-20T09:02:59.175Z,101596.84
2023-04-20T09:05:32.099Z,101594.69
2023-04-20T09:08:02.445Z,101594.47
2023-04-20T09:10:45.953Z,101590.03
2023-04-20T09:13:24.063Z,101594.41
2023-04-20T09:15:54.164Z,101598.47
2023-04-20T09:18:25.001Z,101603.03
2023-04-20T09:20:55.072Z,101599.34
2023-04-20T09:23:24.878Z,101586.44
2023-04-20T09:25:54.679Z,101597.25
2023-04-20T09:28:24.389Z,101587.91
2023-04-20T09:30:54.221Z,101592.59
2023-04-20T09:33:29.609Z,101593.41
2023-04-20T09:36:06.591Z,101585.97
2023-04-20T09:38:37.131Z,101578.81
2023-04-20T09:41:07.661Z,101581.84
2023-04-20T09:43:37.765Z,101580.28
2023-04-20T09:46:08.514Z,101571.34
2023-04-20T09:48:38.672Z,101577.63
2023-04-20T09:51:09.172Z,101572.13
2023-04-20T09:53:40.491Z,101569.53
2023-04-20T09:56:11.542Z,101570.13
2023-04-20T09:58:45.991Z,101567.31
2023-04-20T10:01:16.194Z,101572.56
2023-04-20T10:03:46.509Z,101566.63
2023-04-20T10:06:28.736Z,101568.47
2023-04-20T10:09:02.413Z,101567.06
2023-04-20T10:11:44.497Z,101557.19
2023-04-20T10:14:25.685Z,101567.09
2023-04-20T10:17:11.652Z,101570.97
2023-04-20T10:19:47.607Z,101577.47
2023-04-20T10:22:33.800Z,101577.31
2023-04-20T10:25:19.675Z,101579.47
2023-04-20T10:28:04.791Z,101579.59
2023-04-20T10:30:36.382Z,101578.13
2023-04-20T10:33:12.141Z,101576.13
2023-04-20T10:35:50.908Z,101573.59
2023-04-20T10:38:36.806Z,101575.25
2023-04-20T10:41:13.346Z,101563.00
2023-04-20T10:43:43.764Z,101558.69
2023-04-20T10:46:22.599Z,101555.50
2023-04-20T10:49:01.832Z,101546.53
2023-04-20T10:51:32.578Z,101545.25
2023-04-20T10:54:06.459Z,101541.22
2023-04-20T10:56:52.982Z,101541.50
2023-04-20T10:59:25.327Z,101539.34
2023-04-20T11:01:54.261Z,101544.06
2023-04-20T11:04:33.891Z,101543.84
2023-04-20T11:07:13.668Z,101543.28
2023-04-20T11:09:43.784Z,101545.84
2023-04-20T11:12:18.120Z,101540.56
2023-04-20T11:15:03.029Z,101550.13
2023-04-20T11:17:38.170Z,101550.25
2023-04-20T11:20:17.868Z,101548.50
2023-04-20T11:23:00.686Z,101549.50
2023-04-20T11:25:28.909Z,101537.19
2023-04-20T11:28:09.509Z,101548.41
2023-04-20T11:30:43.850Z,101545.50
2023-04-20T11:33:14.611Z,101536.78
2023-04-20T11:35:45.039Z,101539.22
2023-04-20T11:38:14.870Z,101539.94
2023-04-20T11:40:44.579Z,101529.47
2023-04-20T11:43:14.335Z,101520.69
2023-04-20T11:45:44.462Z,101522.88
2023-04-20T11:48:13.995Z,101514.13
2023-04-20T11:50:44.132Z,101515.66
2023-04-20T11:53:15.065Z,101516.09
2023-04-20T11:55:45.150Z,101509.00
2023-04-20T11:58:15.136Z,101504.31
2023-04-20T12:00:44.856Z,101515.31
2023-04-20T12:03:14.849Z,101507.59
2023-04-20T12:05:44.727Z,101502.00
2023-04-20T12:08:14.878Z,101500.81
2023-04-20T12:10:44.916Z,101498.16
2023-04-20T12:13:15.183Z,101497.81
2023-04-20T12:15:45.445Z,101488.38
2023-04-20T12:18:15.443Z,101490.50
2023-04-20T12:20:47.247Z,101494.00
2023-04-20T12:23:16.941Z,101490.19
2023-04-20T12:25:45.733Z,101480.53
2023-04-20T12:28:14.279Z,101494.47
2023-04-20T12:30:42.188Z,101480.19
2023-04-20T12:33:10.849Z,101482.97
2023-04-20T12:35:39.163Z,101476.03
2023-04-20T12:38:07.582Z,101473.56
2023-04-20T12:40:36.104Z,101480.88
2023-04-20T12:43:06.237Z,101478.22
2023-04-20T12:45:36.291Z,101468.19
2023-04-20T12:48:06.244Z,101460.91
2023-04-20T12:50:36.679Z,101460.31
2023-04-20T12:53:06.827Z,101455.88
2023-04-20T12:55:36.841Z,101450.91
2023-04-20T12:58:06.801Z,101453.59
2023-04-20T13:00:36.607Z,101446.31
2023-04-20T13:03:06.641Z,101453.91
2023-04-20T13:05:36.667Z,101445.03
2023-04-20T13:08:06.864Z,101439.47
2023-04-20T13:10:42.182Z,101440.34
2023-04-20T13:13:11.598Z,101430.91
2023-04-20T13:15:41.527Z,101435.16
2023-04-20T13:18:11.970Z,101431.25
2023-04-20T13:20:41.816Z,101429.25
2023-04-20T13:23:12.157Z,101428.47
2023-04-20T13:25:42.393Z,101426.16
2023-04-20T13:28:14.462Z,101424.28
2023-04-20T13:30:45.444Z,101417.50
2023-04-20T13:33:15.457Z,101418.97
2023-04-20T13:35:45.264Z,101414.94
2023-04-20T13:38:15.073Z,101404.94
2023-04-20T13:40:44.795Z,101412.31
2023-04-20T13:43:15.154Z,101408.75
2023-04-20T13:45:44.930Z,101417.13
2023-04-20T13:48:14.767Z,101401.00
2023-04-20T13:50:44.582Z,101409.22
2023-04-20T13:53:14.397Z,101403.78
2023-04-20T13:55:44.080Z,101403.09
2023-04-20T13:58:13.899Z,101399.22
2023-04-20T14:00:43.610Z,101398.50
2023-04-20T14:03:14.424Z,101381.78
2023-04-20T14:05:46.073Z,101388.69
2023-04-20T14:08:16.277Z,101392.94
2023-04-20T14:10:46.297Z,101386.56
2023-04-20T14:13:16.449Z,101381.28
2023-04-20T14:15:46.271Z,101380.72
2023-04-20T14:18:14.741Z,101381.00
2023-04-20T14:20:43.326Z,101379.59
2023-04-20T14:23:11.890Z,101385.63
2023-04-20T14:25:39.844Z,101382.50
2023-04-20T14:28:08.588Z,101372.09
2023-04-20T14:30:36.682Z,101378.47
2023-04-20T14:33:05.627Z,101373.72
2023-04-20T14:35:33.502Z,101365.88
2023-04-20T14:38:01.174Z,101376.78
2023-04-20T14:40:28.533Z,101364.63
2023-04-20T14:42:57.256Z,101368.88
2023-04-20T14:45:25.284Z,101366.75
2023-04-20T14:47:57.153Z,101361.06
2023-04-20T14:50:28.209Z,101350.59
2023-04-20T14:52:56.911Z,101349.44
2023-04-20T14:55:27.147Z,101348.47
2023-04-20T14:57:58.674Z,101343.34
2023-04-20T15:00:28.772Z,101341.06
2023-04-20T15:02:59.705Z,101335.22
2023-04-20T15:05:29.869Z,101335.81
2023-04-20T15:07:59.124Z,101346.56
2023-04-20T15:10:29.191Z,101346.28
2023-04-20T15:12:58.883Z,101342.44
2023-04-20T15:15:37.681Z,101339.16
2023-04-20T15:18:19.039Z,101342.53
2023-04-20T15:20:52.717Z,101345.88
2023-04-20T15:23:23.236Z,101347.47
2023-04-20T15:25:53.408Z,101334.31
2023-04-20T15:28:23.598Z,101336.88
2023-04-20T15:30:53.816Z,101333.03
2023-04-20T15:33:23.985Z,101343.75
2023-04-20T15:35:54.257Z,101333.63
2023-04-20T15:38:24.618Z,101331.38
2023-04-20T15:40:55.542Z,101331.19
2023-04-20T15:43:25.786Z,101332.09
2023-04-20T15:45:55.965Z,101333.16
2023-04-20T15:48:26.211Z,101326.31
2023-04-20T15:50:54.615Z,101333.25
2023-04-20T15:53:23.051Z,101317.63
2023-04-20T15:55:51.611Z,101329.88
2023-04-20T15:58:20.939Z,101331.13
2023-04-20T16:00:51.234Z,101329.97
2023-04-20T16:03:21.619Z,101327.19
2023-04-20T16:05:51.880Z,101330.22
2023-04-20T16:08:22.031Z,101328.88
2023-04-20T16:10:52.156Z,101322.53
2023-04-20T16:13:22.305Z,101322.66
2023-04-20T16:15:54.691Z,101327.88
2023-04-20T16:18:24.853Z,101327.41
2023-04-20T16:20:55.323Z,101319.97
2023-04-20T16:23:25.767Z,101326.59
2023-04-20T16:25:56.095Z,101322.31
2023-04-20T16:28:26.863Z,101325.97
2023-04-20T16:30:57.067Z,101329.47
2023-04-20T16:33:27.715Z,101330.84
2023-04-20T16:35:57.851Z,101324.75
2023-04-20T16:38:30.842Z,101333.66
2023-04-20T16:41:01.127Z,101325.34
2023-04-20T16:43:31.258Z,101330.59
2023-04-20T16:46:01.550Z,101327.88
2023-04-20T16:48:32.273Z,101333.66
2023-04-20T16:51:02.413Z,101333.47
2023-04-20T16:53:32.497Z,101340.25
2023-04-20T16:56:02.679Z,101331.44
2023-04-20T16:58:32.803Z,101320.59
2023-04-20T17:01:03.308Z,101318.78
2023-04-20T17:03:33.643Z,101314.22
2023-04-20T17:06:07.586Z,101314.16
2023-04-20T17:08:37.872Z,101314.66
2023-04-20T17:11:08.036Z,101315.75
2023-04-20T17:13:38.817Z,101323.56
2023-04-20T17:16:08.993Z,101328.94
2023-04-20T17:18:41.719Z,101327.00
2023-04-20T17:21:12.109Z,101332.69
2023-04-20T17:23:42.276Z,101340.91
2023-04-20T17:26:10.824Z,101334.69
2023-04-20T17:28:39.363Z,101334.72
2023-04-20T17:31:07.672Z,101339.22
2023-04-20T17:33:35.976Z,101337.34
2023-04-20T17:36:04.710Z,101333.13
2023-04-20T17:38:36.738Z,101329.03
2023-04-20T17:41:05.523Z,101334.00
2023-04-20T17:43:40.426Z,101329.84
2023-04-20T17:46:10.896Z,101332.53
2023-04-20T17:48:41.058Z,101334.84
2023-04-20T17:51:14.913Z,101336.69
2023-04-20T17:53:45.068Z,101338.97
2023-04-20T17:56:15.237Z,101351.91
2023-04-20T17:58:46.456Z,101353.34
2023-04-20T18:01:16.665Z,101353.31
2023-04-20T18:03:48.428Z,101361.13
2023-04-20T18:06:18.697Z,101358.63
2023-04-20T18:08:48.836Z,101350.88
2023-04-20T18:11:18.980Z,101357.53
2023-04-20T18:13:49.186Z,101357.00
2023-04-20T18:16:19.633Z,101361.72
2023-04-20T18:18:51.765Z,101360.63
2023-04-20T18:21:22.070Z,101359.16
2023-04-20T18:23:52.187Z,101370.69
2023-04-20T18:26:22.370Z,101363.63
2023-04-20T18:28:52.513Z,101375.19
2023-04-20T18:31:22.719Z,101380.56
2023-04-20T18:33:52.867Z,101374.06
2023-04-20T18:36:22.989Z,101378.97
2023-04-20T18:38:54.187Z,101380.38
2023-04-20T18:41:25.841Z,101372.06
2023-04-20T18:43:56.847Z,101380.00
2023-04-20T18:46:25.814Z,101378.28
2023-04-20T18:48:55.763Z,101380.16
2023-04-20T18:51:24.051Z,101377.19
2023-04-20T18:53:52.976Z,101374.03
2023-04-20T18:56:20.901Z,101375.78
2023-04-20T18:58:49.245Z,101378.16
2023-04-20T19:01:17.715Z,101375.38
2023-04-20T19:03:48.002Z,101378.06
2023-04-20T19:06:18.422Z,101379.81
2023-04-20T19:08:50.586Z,101381.16
2023-04-20T19:11:20.730Z,101379.94
2023-04-20T19:13:51.073Z,101375.38
2023-04-20T19:16:21.306Z,101376.84
2023-04-20T19:18:51.659Z,101376.09
2023-04-20T19:21:22.208Z,101381.47
2023-04-20T19:23:52.678Z,101372.13
2023-04-20T19:26:23.618Z,101370.03
2023-04-20T19:28:53.825Z,101375.81
2023-04-20T19:31:24.176Z,101370.97
2023-04-20T19:33:56.554Z,101367.19
2023-04-20T19:36:27.304Z,101365.63
2023-04-20T19:38:57.426Z,101376.03
2023-04-20T19:41:28.347Z,101371.19
2023-04-20T19:43:59.556Z,101372.00
2023-04-20T19:46:29.801Z,101383.22
2023-04-20T19:49:01.491Z,101380.53
2023-04-20T19:51:33.219Z,101381.16
2023-04-20T19:54:04.896Z,101381.97
2023-04-20T19:56:35.098Z,101381.16
2023-04-20T19:59:05.466Z,101379.50
2023-04-20T20:01:35.704Z,101374.25
2023-04-20T20:04:06.231Z,101381.16
2023-04-20T20:06:36.672Z,101380.22
2023-04-20T20:09:06.970Z,101374.97
2023-04-20T20:11:37.092Z,101370.66
2023-04-20T20:14:07.844Z,101373.09
2023-04-20T20:16:38.107Z,101375.97
2023-04-20T20:19:09.019Z,101374.31
2023-04-20T20:21:39.204Z,101383.47
2023-04-20T20:24:09.302Z,101375.88
2023-04-20T20:26:39.437Z,101383.16
2023-04-20T20:29:08.024Z,101379.69
2023-04-20T20:31:36.670Z,101379.22
2023-04-20T20:34:05.078Z,101379.94
2023-04-20T20:36:33.597Z,101380.25
2023-04-20T20:39:01.704Z,101392.72
2023-04-20T20:41:30.476Z,101391.81
2023-04-20T20:43:59.837Z,101387.81
2023-04-20T20:46:31.867Z,101382.56
2023-04-20T20:49:02.107Z,101388.50
2023-04-20T20:51:32.337Z,101380.16
2023-04-20T20:54:02.467Z,101379.94
2023-04-20T20:56:32.665Z,101378.06
2023-04-20T20:59:02.797Z,101376.97
2023-04-20T21:01:32.977Z,101372.22
2023-04-20T21:04:04.921Z,101371.72
2023-04-20T21:06:35.215Z,101379.28
2023-04-20T21:09:05.820Z,101374.34
2023-04-20T21:11:36.087Z,101376.19
2023-04-20T21:14:06.215Z,101369.38
2023-04-20T21:16:36.461Z,101369.59
2023-04-20T21:19:06.705Z,101373.94
2023-04-20T21:21:36.814Z,101377.53
2023-04-20T21:24:07.280Z,101380.06
2023-04-20T21:26:38.433Z,101382.31
2023-04-20T21:29:09.464Z,101380.34
2023-04-20T21:31:39.626Z,101375.44
2023-04-20T21:34:09.872Z,101376.78
2023-04-20T21:36:39.985Z,101376.53
2023-04-20T21:39:10.147Z,101374.38
2023-04-20T21:41:40.706Z,101371.19
2023-04-20T21:44:10.875Z,101382.47
2023-04-20T21:46:41.022Z,101385.84
2023-04-20T21:49:11.223Z,101384.59
2023-04-20T21:51:41.370Z,101387.81
2023-04-20T21:54:11.853Z,101389.97
2023-04-20T21:56:42.041Z,101387.19
2023-04-20T21:59:10.470Z,101385.63
2023-04-20T22:01:38.939Z,101388.41
2023-04-20T22:04:07.497Z,101389.31
2023-04-20T22:06:36.134Z,101394.03
2023-04-20T22:09:04.823Z,101384.66
2023-04-20T22:11:36.673Z,101387.81
2023-04-20T22:14:07.021Z,101395.13
2023-04-20T22:16:37.298Z,101388.50
2023-04-20T22:19:07.555Z,101395.22
2023-04-20T22:21:38.551Z,101390.25
2023-04-20T22:24:08.807Z,101393.13
2023-04-20T22:26:39.109Z,101396.53
2023-04-20T22:29:09.278Z,101394.66
2023-04-20T22:31:39.444Z,101389.91
2023-04-20T22:34:09.571Z,101398.50
2023-04-20T22:36:39.980Z,101394.00
2023-04-20T22:39:10.342Z,101392.88
2023-04-20T22:41:40.524Z,101394.97
2023-04-20T22:44:10.628Z,101391.94
2023-04-20T22:46:40.958Z,101387.72
2023-04-20T22:49:11.109Z,101397.53
2023-04-20T22:51:41.834Z,101390.47
2023-04-20T22:54:12.615Z,101397.69
2023-04-20T22:56:42.955Z,101389.84
2023-04-20T22:59:13.159Z,101388.84
2023-04-20T23:01:43.494Z,101394.19
2023-04-20T23:04:13.725Z,101393.44
2023-04-20T23:06:47.353Z,101392.69
2023-04-20T23:09:20.955Z,101410.16
2023-04-20T23:11:54.063Z,101402.22
2023-04-20T23:14:24.833Z,101403.59
2023-04-20T23:16:54.985Z,101403.97
2023-04-20T23:19:25.947Z,101397.69
2023-04-20T23:21:56.043Z,101399.31
2023-04-20T23:24:26.295Z,101395.13
2023-04-20T23:26:57.667Z,101395.63
2023-04-20T23:29:28.531Z,101393.16
2023-04-20T23:31:58.932Z,101393.69
2023-04-20T23:34:29.115Z,101386.97
2023-04-20T23:36:59.501Z,101396.03
2023-04-20T23:39:27.753Z,101390.44
2023-04-20T23:41:56.514Z,101395.44
2023-04-20T23:44:24.471Z,101397.94
2023-04-20T23:46:52.925Z,101401.22
2023-04-20T23:49:23.069Z,101390.50
2023-04-20T23:51:53.081Z,101399.66
2023-04-20T23:54:21.427Z,101401.38
2023-04-20T23:56:49.847Z,101390.84
2023-04-20T23:59:18.362Z,101385.63
